Terminal Aerodrome Forecast
Issued by NWS Charleston, WV

Current Version | Previous Version | Graphics & Text | Print | Product List | Glossary On
Versions: 1 2 3 4 5 6 7 8 9 10 11 12 13 14 15 16 17 18 19 20 21 22
000
FTUS41 KRLX 200242 AAA
TAFBKW
TAF AMD
KBKW 200242Z 2003/2024 22007KT P6SM SKC
     FM200900 26003KT P6SM BKN011
     FM201500 28009KT P6SM SCT045=

USA.gov is the U.S. government's official web portal to all federal, state and local government web resources and services.